KFRG/FRG METAR and TAF weather

Enter ICAO airport designator
Station Type Date Time Source
KFRG METAR 2020/10/29 17:09 UTC NOAA

KFRG 291709Z 08008KT 2 1/2SM RA BR BKN008 OVC018 11/09 A2973 RMK AO2 SFC VIS 6 P0003 T01060089


Station Type Date Time Source
KFRG Decoded METAR 2020/10/29 17:09 UTC NOAA

FARMINGDALE REPUBLIC AIRPORT , NY, United States (KFRG) 40-44N 073-25W 21M
Oct 29, 2020 - 01:09 PM EDT / 2020.10.29 1709 UTC
Wind: from the E (080 degrees) at 9 MPH (8 KT):0
Visibility: 2 1/2 mile(s):0
Sky conditions: overcast
Weather: rain; mist
Precipitation last hour: 0.03 inches
Temperature: 51.1 F (10.6 C)
Dew Point: 48.0 F (8.9 C)
Relative Humidity: 89%
Pressure (altimeter): 29.73 in. Hg (1006 hPa)
ob: KFRG 291709Z 08008KT 2 1/2SM RA BR BKN008 OVC018 11/09 A2973 RMK AO2 SFC VIS 6 P0003 T01060089
cycle: 17

Station Type Date Time Source
KFRG TAF UTC NOAA

Error!

Example: see airport list